Time;durP1;ratioP1;P1;durP2;ratioP2;P2;SDS_P1;SDS_P2;PMS_P1;PMS_P2;Temp;Humidity;BMP_temperature;BMP_pressure;BME280_temperature;BME280_humidity;BME280_pressure;Samples;Min_cycle;Max_cycle;Signal;HPM_P1;HPM_P2
2024/03/17 00:01:36;;;;;;;41.80;22.20;;;5.70;99.90;;;;;;5012553;28;20176;-72
2024/03/17 00:04:02;;;;;;;29.43;18.10;;;5.70;99.90;;;;;;5011814;28;20641;-72
2024/03/17 00:06:28;;;;;;;48.20;26.60;;;5.60;99.90;;;;;;5011575;28;20202;-72
2024/03/17 00:08:54;;;;;;;37.27;22.43;;;5.50;99.90;;;;;;5010170;28;20206;-72
2024/03/17 00:11:20;;;;;;;25.53;17.00;;;5.60;99.90;;;;;;5011292;28;20259;-72
2024/03/17 00:13:46;;;;;;;19.70;14.90;;;5.50;99.90;;;;;;5011073;28;20259;-72
2024/03/17 00:16:13;;;;;;;20.80;14.93;;;5.60;99.90;;;;;;5009687;28;20226;-72
2024/03/17 00:18:39;;;;;;;23.93;14.60;;;5.60;99.90;;;;;;5011361;28;20174;-72
2024/03/17 00:21:04;;;;;;;22.33;14.80;;;5.60;99.90;;;;;;5011864;28;20247;-72
2024/03/17 00:23:30;;;;;;;20.00;14.90;;;5.60;99.90;;;;;;5010985;28;20725;-72
2024/03/17 00:25:56;;;;;;;22.00;14.30;;;5.60;99.90;;;;;;5011026;28;20732;-72
2024/03/17 00:28:22;;;;;;;20.40;14.70;;;5.60;99.90;;;;;;5010688;28;20211;-73
2024/03/17 00:30:47;;;;;;;18.23;14.37;;;5.50;99.90;;;;;;5010917;28;20258;-72
2024/03/17 00:33:14;;;;;;;21.53;13.67;;;5.60;99.90;;;;;;5010994;28;20218;-72
2024/03/17 00:35:39;;;;;;;22.10;14.67;;;5.60;99.90;;;;;;5010622;28;20648;-72
2024/03/17 00:38:10;;;;;;;16.73;14.33;;;5.60;99.90;;;;;;5011021;28;20204;-72
2024/03/17 00:40:36;;;;;;;24.90;17.40;;;5.60;99.90;;;;;;5010849;28;20717;-72
2024/03/17 00:43:02;;;;;;;18.00;14.93;;;5.50;99.90;;;;;;5010822;28;20176;-72
2024/03/17 00:45:28;;;;;;;18.60;14.07;;;5.60;99.90;;;;;;5011213;28;20180;-72
2024/03/17 00:47:53;;;;;;;16.57;14.90;;;5.60;99.90;;;;;;5013187;28;20548;-72
2024/03/17 00:50:19;;;;;;;18.90;14.63;;;5.60;99.90;;;;;;5014355;28;20216;-72
2024/03/17 00:52:44;;;;;;;16.93;14.13;;;5.60;99.90;;;;;;5014256;28;20172;-72
2024/03/17 00:55:10;;;;;;;17.80;14.13;;;5.60;99.90;;;;;;5014233;28;20212;-72
2024/03/17 00:57:36;;;;;;;20.93;13.77;;;5.60;99.90;;;;;;5013947;28;20223;-72
2024/03/17 01:00:06;;;;;;;15.83;14.13;;;5.60;99.90;;;;;;5014212;28;20557;-71
2024/03/17 01:02:31;;;;;;;18.50;14.70;;;5.60;99.90;;;;;;5013885;28;20188;-71
2024/03/17 01:04:57;;;;;;;17.77;13.90;;;5.60;99.90;;;;;;5013870;28;20179;-71
2024/03/17 01:07:23;;;;;;;15.23;13.70;;;5.60;99.90;;;;;;5012560;28;20176;-71
2024/03/17 01:09:48;;;;;;;16.67;13.90;;;5.60;99.90;;;;;;5014052;28;20202;-71
2024/03/17 01:12:14;;;;;;;18.03;13.80;;;5.60;99.90;;;;;;5013827;28;20218;-71
2024/03/17 01:14:40;;;;;;;20.50;13.70;;;5.60;99.90;;;;;;5013448;28;20172;-72
2024/03/17 01:17:05;;;;;;;21.60;13.83;;;5.60;99.90;;;;;;5013791;28;20298;-72
2024/03/17 01:19:32;;;;;;;20.83;14.33;;;5.60;99.90;;;;;;5012304;28;20192;-72
2024/03/17 01:22:00;;;;;;;25.17;16.30;;;5.60;99.90;;;;;;5013659;28;20199;-72
2024/03/17 01:24:25;;;;;;;21.60;15.60;;;5.60;99.90;;;;;;5013343;28;20187;-72
2024/03/17 01:26:51;;;;;;;25.13;14.80;;;5.60;99.90;;;;;;5012337;28;20842;-72
2024/03/17 01:29:16;;;;;;;18.63;14.73;;;5.60;99.90;;;;;;5013581;28;20250;-72
2024/03/17 01:31:42;;;;;;;19.37;14.60;;;5.60;99.90;;;;;;5012354;28;20172;-72
2024/03/17 01:34:07;;;;;;;18.93;13.70;;;5.50;99.90;;;;;;5013816;28;20582;-73
2024/03/17 01:36:33;;;;;;;22.60;15.47;;;5.50;99.90;;;;;;5013404;28;20211;-73
2024/03/17 01:38:59;;;;;;;17.57;14.83;;;5.40;99.90;;;;;;5013415;28;20192;-73
2024/03/17 01:41:25;;;;;;;21.20;16.03;;;5.30;99.90;;;;;;5013391;28;20218;-73
2024/03/17 01:43:51;;;;;;;20.77;14.77;;;5.30;99.90;;;;;;5013775;28;20693;-72
2024/03/17 01:46:17;;;;;;;16.93;14.93;;;5.30;99.90;;;;;;5013331;28;20180;-73
2024/03/17 01:48:44;;;;;;;22.60;15.00;;;5.20;99.90;;;;;;5014465;28;20223;-72
2024/03/17 01:51:13;;;;;;;17.10;14.10;;;5.10;99.90;;;;;;5014702;28;20188;-72
2024/03/17 01:53:39;;;;;;;20.97;14.73;;;5.10;99.90;;;;;;5014563;28;20168;-73
2024/03/17 01:56:08;;;;;;;19.73;15.50;;;5.10;99.90;;;;;;5013719;28;20177;-72
2024/03/17 01:58:34;;;;;;;20.93;15.27;;;5.00;99.90;;;;;;5012914;28;20210;-72
2024/03/17 02:01:00;;;;;;;21.87;14.77;;;5.00;99.90;;;;;;5013195;28;20180;-73
2024/03/17 02:03:25;;;;;;;21.37;14.87;;;5.00;99.90;;;;;;5013197;28;20172;-73
2024/03/17 02:05:51;;;;;;;20.83;15.50;;;5.00;99.90;;;;;;5013688;28;20655;-73
2024/03/17 02:08:18;;;;;;;21.20;15.63;;;4.90;99.90;;;;;;5013085;28;20212;-73
2024/03/17 02:10:43;;;;;;;23.83;16.33;;;4.90;99.90;;;;;;5013119;28;20561;-72
2024/03/17 02:13:09;;;;;;;21.17;15.10;;;4.90;99.90;;;;;;5012894;28;20176;-73
2024/03/17 02:15:34;;;;;;;21.17;16.03;;;4.90;99.90;;;;;;5012386;28;20176;-73
2024/03/17 02:18:00;;;;;;;27.23;15.87;;;4.90;99.90;;;;;;5012848;28;20200;-73
2024/03/17 02:23:10;;;;;;;21.23;16.70;;;4.90;99.90;;;;;;5012886;28;20231;-73
2024/03/17 02:25:35;;;;;;;32.27;17.67;;;4.80;99.90;;;;;;5012363;28;20622;-73
2024/03/17 02:28:02;;;;;;;22.27;17.17;;;4.80;99.90;;;;;;5012669;28;20177;-73
2024/03/17 02:30:27;;;;;;;24.93;17.23;;;4.80;99.90;;;;;;5012031;28;20234;-73
2024/03/17 02:32:54;;;;;;;23.10;17.43;;;4.80;99.90;;;;;;5012381;28;20658;-73
2024/03/17 02:35:21;;;;;;;23.07;15.93;;;4.70;99.90;;;;;;5012271;28;20263;-73
2024/03/17 02:37:47;;;;;;;23.90;16.83;;;4.70;99.90;;;;;;5012566;28;20362;-72
2024/03/17 02:40:13;;;;;;;24.10;16.43;;;4.70;99.90;;;;;;5012287;28;20291;-73
2024/03/17 02:42:41;;;;;;;24.50;16.50;;;4.70;99.90;;;;;;5011811;28;20215;-73
2024/03/17 02:45:11;;;;;;;26.07;17.33;;;4.70;99.90;;;;;;5011530;28;20180;-73
2024/03/17 02:47:37;;;;;;;22.30;17.50;;;4.70;99.90;;;;;;5011808;28;20225;-72
2024/03/17 02:50:04;;;;;;;24.33;17.67;;;4.80;99.90;;;;;;5011983;28;20650;-73
2024/03/17 02:52:29;;;;;;;24.07;16.57;;;4.80;99.90;;;;;;5010299;28;20184;-73
2024/03/17 02:54:55;;;;;;;25.87;17.10;;;4.80;99.90;;;;;;5011607;28;20202;-73
2024/03/17 02:57:24;;;;;;;25.37;17.40;;;4.80;99.90;;;;;;5011755;28;20207;-73
2024/03/17 02:59:50;;;;;;;23.37;17.67;;;4.90;99.90;;;;;;5011683;28;20204;-73
2024/03/17 03:02:16;;;;;;;20.53;16.33;;;4.90;99.90;;;;;;5012058;28;20176;-72
2024/03/17 03:04:41;;;;;;;23.17;17.20;;;4.90;99.90;;;;;;5011406;28;20194;-72
2024/03/17 03:07:07;;;;;;;22.30;16.40;;;4.80;99.90;;;;;;5011609;28;20657;-72
2024/03/17 03:09:32;;;;;;;24.73;17.30;;;4.80;99.90;;;;;;5011677;28;20200;-72
2024/03/17 03:12:02;;;;;;;25.60;16.67;;;4.80;99.90;;;;;;5012091;28;20255;-72
2024/03/17 03:14:29;;;;;;;20.67;17.60;;;4.80;99.90;;;;;;5011497;28;20183;-72
2024/03/17 03:16:54;;;;;;;26.20;18.20;;;4.70;99.90;;;;;;5012059;28;20235;-72
2024/03/17 03:19:20;;;;;;;23.33;16.10;;;4.70;99.90;;;;;;5012325;28;20719;-72
2024/03/17 03:21:46;;;;;;;22.67;16.83;;;4.70;99.90;;;;;;5011143;28;20180;-72
2024/03/17 03:24:13;;;;;;;23.57;16.93;;;4.70;99.90;;;;;;5010789;28;20267;-72
2024/03/17 03:26:39;;;;;;;27.47;17.57;;;4.70;99.90;;;;;;5011824;28;20651;-72
2024/03/17 03:29:05;;;;;;;24.60;16.57;;;4.70;99.90;;;;;;5010416;28;20204;-72
2024/03/17 03:31:33;;;;;;;23.17;17.60;;;4.60;99.90;;;;;;5011713;28;20284;-72
2024/03/17 03:34:01;;;;;;;23.00;17.33;;;4.60;99.90;;;;;;5010344;28;20242;-72
2024/03/17 03:36:27;;;;;;;26.60;17.40;;;4.60;99.90;;;;;;5011617;28;20539;-72
2024/03/17 03:38:53;;;;;;;22.07;17.17;;;4.60;99.90;;;;;;5011625;28;20199;-72
2024/03/17 03:41:19;;;;;;;24.30;17.43;;;4.60;99.90;;;;;;5012094;28;20172;-72
2024/03/17 03:43:46;;;;;;;21.93;17.80;;;4.50;99.90;;;;;;5011257;28;20188;-72
2024/03/17 03:46:12;;;;;;;29.37;18.37;;;4.60;99.90;;;;;;5010677;28;20176;-72
2024/03/17 03:48:38;;;;;;;25.07;19.07;;;4.60;99.90;;;;;;5011337;28;20638;-72
2024/03/17 03:51:05;;;;;;;28.83;18.10;;;4.60;99.90;;;;;;5011864;28;20202;-72
2024/03/17 03:53:32;;;;;;;28.80;18.17;;;4.70;99.90;;;;;;5011426;28;20180;-72
2024/03/17 03:55:58;;;;;;;25.17;18.30;;;4.80;99.90;;;;;;5011160;28;20180;-72
2024/03/17 03:58:24;;;;;;;25.27;17.70;;;4.80;99.90;;;;;;5011298;28;20200;-72
2024/03/17 04:00:50;;;;;;;23.17;17.63;;;4.90;99.90;;;;;;5011437;28;20536;-72
2024/03/17 04:03:15;;;;;;;27.53;18.17;;;4.90;99.90;;;;;;5011400;28;20227;-72
2024/03/17 04:05:41;;;;;;;26.13;17.87;;;5.00;99.90;;;;;;5011209;28;20238;-72
2024/03/17 04:08:08;;;;;;;23.47;18.23;;;5.00;99.90;;;;;;5011588;28;20177;-72
2024/03/17 04:10:35;;;;;;;23.73;18.97;;;5.00;99.90;;;;;;5011110;28;20208;-72
2024/03/17 04:13:00;;;;;;;25.37;17.47;;;5.10;99.90;;;;;;5010042;28;20191;-72
2024/03/17 04:15:26;;;;;;;24.10;17.23;;;5.10;99.90;;;;;;5011302;28;20180;-73
2024/03/17 04:17:52;;;;;;;21.83;16.60;;;5.10;99.90;;;;;;5011228;28;20215;-73
2024/03/17 04:20:18;;;;;;;24.00;17.20;;;5.10;99.90;;;;;;5013155;28;20184;-72
2024/03/17 04:22:43;;;;;;;27.87;17.87;;;5.10;99.90;;;;;;5014700;28;20187;-73
2024/03/17 04:25:10;;;;;;;29.77;17.83;;;5.10;99.90;;;;;;5014712;28;20226;-72
2024/03/17 04:27:36;;;;;;;20.87;16.10;;;5.20;99.90;;;;;;5014839;28;20552;-72
2024/03/17 04:30:05;;;;;;;24.10;17.10;;;5.20;99.90;;;;;;5013740;28;20200;-72
2024/03/17 04:32:31;;;;;;;26.43;17.50;;;5.20;99.90;;;;;;5014717;28;20237;-72
2024/03/17 04:34:57;;;;;;;26.30;16.93;;;5.20;99.90;;;;;;5014586;28;20649;-72
2024/03/17 04:37:22;;;;;;;23.40;16.03;;;5.30;99.90;;;;;;5014527;28;20247;-73
2024/03/17 04:39:48;;;;;;;25.73;16.87;;;5.30;99.90;;;;;;5014592;28;20192;-72
2024/03/17 04:42:16;;;;;;;22.33;17.57;;;5.30;99.90;;;;;;5014933;28;20208;-72
2024/03/17 04:44:42;;;;;;;25.70;17.17;;;5.30;99.90;;;;;;5014132;28;20168;-72
2024/03/17 04:47:08;;;;;;;24.40;15.60;;;5.40;99.90;;;;;;5014413;28;20283;-73
2024/03/17 04:49:37;;;;;;;18.67;16.63;;;5.40;99.90;;;;;;5014356;28;20243;-72
2024/03/17 04:52:04;;;;;;;20.60;16.03;;;5.40;99.90;;;;;;5014439;28;20280;-73
2024/03/17 04:54:31;;;;;;;25.77;15.83;;;5.40;99.90;;;;;;5014175;28;20180;-72
2024/03/17 04:56:56;;;;;;;21.63;15.90;;;5.40;99.90;;;;;;5014356;28;20215;-73
2024/03/17 04:59:22;;;;;;;22.47;16.17;;;5.40;99.90;;;;;;5014420;28;20559;-73
2024/03/17 05:01:48;;;;;;;21.93;16.00;;;5.40;99.90;;;;;;5014253;28;20187;-73
2024/03/17 05:04:14;;;;;;;19.23;14.77;;;5.30;99.90;;;;;;5014413;28;20676;-73
2024/03/17 05:06:41;;;;;;;19.17;14.77;;;5.30;99.90;;;;;;5014025;28;20241;-73
2024/03/17 05:09:07;;;;;;;20.93;15.80;;;5.30;99.90;;;;;;5014237;28;20381;-73
2024/03/17 05:11:35;;;;;;;19.13;15.67;;;5.20;99.90;;;;;;5014126;28;20172;-73
2024/03/17 05:14:00;;;;;;;18.70;15.27;;;5.10;99.90;;;;;;5013913;28;20219;-73
2024/03/17 05:16:29;;;;;;;21.53;16.77;;;5.10;99.90;;;;;;5012714;28;20212;-73
2024/03/17 05:18:55;;;;;;;21.80;15.83;;;5.00;99.90;;;;;;5012532;28;20262;-73
2024/03/17 05:21:22;;;;;;;22.37;15.60;;;5.00;99.90;;;;;;5012933;28;20184;-72
2024/03/17 05:23:48;;;;;;;20.27;16.27;;;5.00;99.90;;;;;;5012405;28;20219;-73
2024/03/17 05:26:14;;;;;;;20.83;16.80;;;4.90;99.90;;;;;;5013495;28;20177;-72
2024/03/17 05:28:39;;;;;;;19.37;15.40;;;4.90;99.90;;;;;;5013681;28;20195;-73
2024/03/17 05:31:05;;;;;;;22.37;16.83;;;4.90;99.90;;;;;;5013560;28;20176;-72
2024/03/17 05:33:31;;;;;;;23.40;16.10;;;4.90;99.90;;;;;;5013533;28;20176;-73
2024/03/17 05:35:58;;;;;;;23.57;16.50;;;4.80;99.90;;;;;;5013133;28;20537;-73
2024/03/17 05:38:26;;;;;;;21.10;15.93;;;4.80;99.90;;;;;;5013095;28;20580;-73
2024/03/17 05:40:55;;;;;;;22.57;15.93;;;4.80;99.90;;;;;;5012989;28;20655;-73
2024/03/17 05:43:22;;;;;;;23.97;17.47;;;4.80;99.90;;;;;;5012982;28;20176;-73
2024/03/17 05:45:47;;;;;;;21.43;17.17;;;4.80;99.90;;;;;;5012616;28;20222;-73
2024/03/17 05:48:13;;;;;;;19.77;16.00;;;4.80;99.90;;;;;;5012813;28;20188;-73
2024/03/17 05:50:39;;;;;;;22.17;16.80;;;4.80;99.90;;;;;;5054789;23;20652;-84
2024/03/17 05:53:06;;;;;;;25.17;17.17;;;4.70;99.90;;;;;;5055799;28;20194;-84
2024/03/17 05:55:35;;;;;;;27.90;16.03;;;4.80;99.90;;;;;;5055245;28;20665;-84
2024/03/17 05:58:01;;;;;;;25.23;17.70;;;4.70;99.90;;;;;;5057182;28;20270;-84
2024/03/17 06:00:27;;;;;;;23.47;17.73;;;4.70;99.90;;;;;;5055544;28;20209;-84
2024/03/17 06:02:52;;;;;;;25.80;17.00;;;4.70;99.90;;;;;;5039636;28;20753;-84
2024/03/17 06:05:19;;;;;;;21.20;17.13;;;4.70;99.90;;;;;;5036592;28;20563;-84
2024/03/17 06:07:46;;;;;;;22.03;16.37;;;4.70;99.90;;;;;;5036916;28;20183;-84
2024/03/17 06:10:12;;;;;;;24.03;16.37;;;4.70;99.90;;;;;;5035600;28;20211;-84
2024/03/17 06:12:38;;;;;;;23.23;17.50;;;4.80;99.90;;;;;;5020402;28;20195;-84
2024/03/17 06:15:06;;;;;;;24.67;16.90;;;4.80;99.90;;;;;;5041172;28;20214;-84
2024/03/17 06:17:31;;;;;;;22.00;16.37;;;4.80;99.90;;;;;;5056995;28;20214;-84
2024/03/17 06:19:57;;;;;;;23.43;16.57;;;4.80;99.90;;;;;;5056134;28;20186;-84
2024/03/17 06:22:24;;;;;;;28.90;17.87;;;4.80;99.90;;;;;;5056539;28;20636;-85
2024/03/17 06:24:50;;;;;;;22.50;16.37;;;4.80;99.90;;;;;;5056076;28;20349;-84
2024/03/17 06:27:17;;;;;;;20.77;16.40;;;4.90;99.90;;;;;;5056439;28;20198;-85
2024/03/17 06:29:47;;;;;;;22.97;16.93;;;4.90;99.90;;;;;;5057685;28;20604;-89
2024/03/17 06:32:17;;;;;;;26.77;18.37;;;5.00;99.90;;;;;;5066986;28;20201;-89
2024/03/17 06:34:43;;;;;;;24.73;17.07;;;5.00;99.90;;;;;;5056580;28;20235;-85
2024/03/17 06:37:09;;;;;;;28.00;17.93;;;5.10;99.90;;;;;;5055745;28;20297;-87
2024/03/17 06:39:35;;;;;;;23.40;17.23;;;5.20;99.90;;;;;;5055222;28;20293;-86
2024/03/17 06:42:00;;;;;;;26.80;18.23;;;5.30;99.90;;;;;;5055304;28;20191;-85
2024/03/17 06:44:30;;;;;;;21.40;17.20;;;5.30;99.90;;;;;;5038434;28;20179;-88
2024/03/17 06:46:56;;;;;;;23.17;17.67;;;5.40;99.90;;;;;;5036243;28;20214;-87
2024/03/17 06:49:21;;;;;;;25.53;18.00;;;5.50;99.90;;;;;;5045433;28;20651;-88
2024/03/17 06:51:48;;;;;;;27.37;17.77;;;5.50;99.90;;;;;;5054873;28;20541;-84
2024/03/17 06:54:13;;;;;;;24.23;18.00;;;5.60;99.90;;;;;;5055445;28;20167;-84
2024/03/17 06:56:40;;;;;;;25.73;18.37;;;5.70;99.90;;;;;;5054292;28;20198;-84
2024/03/17 06:59:05;;;;;;;23.40;18.53;;;5.80;99.90;;;;;;5056287;28;20167;-84
2024/03/17 07:01:31;;;;;;;24.23;17.50;;;6.00;99.90;;;;;;5054300;28;20249;-85
2024/03/17 07:03:58;;;;;;;22.00;16.63;;;6.20;99.90;;;;;;5048118;28;20626;-85
2024/03/17 07:06:24;;;;;;;25.97;18.43;;;6.30;99.90;;;;;;5034628;28;20195;-84
2024/03/17 07:08:51;;;;;;;25.20;18.10;;;6.50;99.90;;;;;;5053158;28;20644;-85
2024/03/17 07:11:17;;;;;;;18.13;15.70;;;6.80;99.90;;;;;;5055014;28;20193;-85
2024/03/17 07:13:43;;;;;;;24.77;15.67;;;7.00;99.90;;;;;;5038213;28;20381;-85
2024/03/17 07:16:09;;;;;;;20.10;16.47;;;7.20;99.90;;;;;;5054652;28;20609;-84
2024/03/17 07:18:36;;;;;;;19.93;16.20;;;7.50;99.90;;;;;;5037879;28;20569;-85
2024/03/17 07:21:07;;;;;;;19.43;15.37;;;7.90;99.90;;;;;;5056637;28;20190;-85
2024/03/17 07:23:32;;;;;;;15.30;13.70;;;8.50;99.90;;;;;;5054620;28;20257;-85
2024/03/17 07:26:00;;;;;;;13.97;11.67;;;9.00;99.90;;;;;;5054364;28;20222;-85
2024/03/17 07:28:26;;;;;;;11.73;10.50;;;9.40;99.90;;;;;;5056373;28;20163;-85
2024/03/17 07:30:54;;;;;;;10.17;9.17;;;9.80;99.90;;;;;;5057228;28;20277;-85
2024/03/17 07:33:20;;;;;;;8.33;7.37;;;10.30;99.90;;;;;;5036980;28;20680;-85
2024/03/17 07:35:59;;;;;;;7.63;7.03;;;10.80;99.90;;;;;;5035174;28;20203;-85
2024/03/17 07:38:26;;;;;;;6.47;5.77;;;11.30;99.90;;;;;;5036874;28;20683;-85
2024/03/17 07:41:05;;;;;;;6.27;5.67;;;11.50;99.90;;;;;;5039996;28;20199;-87
2024/03/17 07:43:39;;;;;;;7.60;5.50;;;11.90;99.90;;;;;;5038366;28;20661;-84
2024/03/17 07:46:13;;;;;;;7.77;5.77;;;12.00;99.90;;;;;;5068293;28;20194;-85
2024/03/17 07:48:40;;;;;;;6.73;5.77;;;12.10;99.90;;;;;;5034573;28;20262;-85
2024/03/17 07:51:08;;;;;;;6.53;5.63;;;12.10;99.90;;;;;;5037048;28;20218;-84
2024/03/17 07:53:38;;;;;;;6.67;5.97;;;12.10;99.90;;;;;;5035773;28;20251;-84
2024/03/17 07:56:11;;;;;;;5.97;5.37;;;12.10;99.90;;;;;;5039367;28;20195;-84
2024/03/17 07:58:51;;;;;;;5.90;5.40;;;12.20;99.90;;;;;;5038872;28;20205;-85
2024/03/17 08:01:17;;;;;;;5.60;5.07;;;12.40;99.90;;;;;;5039503;28;20183;-85
2024/03/17 08:03:55;;;;;;;5.13;4.50;;;12.80;99.90;;;;;;5022488;28;20176;-85
2024/03/17 08:06:24;;;;;;;5.67;5.07;;;13.20;99.90;;;;;;5057688;28;20401;-85
2024/03/17 08:08:49;;;;;;;5.17;4.73;;;13.40;99.90;;;;;;5060752;28;20201;-84
2024/03/17 08:11:16;;;;;;;5.43;4.93;;;13.70;99.90;;;;;;5062987;28;20182;-86
2024/03/17 08:13:43;;;;;;;4.97;4.47;;;13.70;99.90;;;;;;5074620;28;20175;-84
2024/03/17 08:16:08;;;;;;;5.23;4.67;;;13.60;99.90;;;;;;5067458;28;20205;-85
2024/03/17 08:18:34;;;;;;;5.70;4.77;;;13.60;99.90;;;;;;5042311;28;20211;-85
2024/03/17 08:21:01;;;;;;;5.00;4.60;;;13.60;99.90;;;;;;5039276;28;20176;-85
2024/03/17 08:23:27;;;;;;;5.00;4.50;;;13.50;99.90;;;;;;5038380;28;20654;-86
2024/03/17 08:25:54;;;;;;;6.50;5.47;;;13.30;99.90;;;;;;5039733;28;20199;-85
2024/03/17 08:28:20;;;;;;;5.97;4.90;;;12.90;99.90;;;;;;5044424;28;20544;-85
2024/03/17 08:31:03;;;;;;;5.80;5.30;;;12.60;99.90;;;;;;5058759;28;20174;-85
2024/03/17 08:33:32;;;;;;;5.07;4.57;;;12.70;99.90;;;;;;5060453;28;20232;-86
2024/03/17 08:36:10;;;;;;;4.73;4.33;;;13.10;99.90;;;;;;5057692;28;20198;-85
2024/03/17 08:38:37;;;;;;;6.73;4.97;;;13.70;99.90;;;;;;5051420;28;20210;-85
2024/03/17 08:41:07;;;;;;;5.17;4.67;;;14.10;99.90;;;;;;5038103;28;20176;-85
2024/03/17 08:43:33;;;;;;;5.60;4.57;;;14.10;99.90;;;;;;5044779;28;20182;-85
2024/03/17 08:46:05;;;;;;;5.20;4.80;;;13.90;99.90;;;;;;5047069;28;20691;-85
2024/03/17 08:48:32;;;;;;;5.60;4.57;;;13.70;99.90;;;;;;5046774;28;20310;-85
2024/03/17 08:51:01;;;;;;;5.77;4.80;;;13.50;99.90;;;;;;5053643;28;20262;-85
2024/03/17 08:53:27;;;;;;;5.60;5.13;;;13.30;99.90;;;;;;5058202;28;20167;-85
2024/03/17 08:55:55;;;;;;;7.00;5.57;;;13.10;99.90;;;;;;5056305;28;20195;-85
2024/03/17 08:58:21;;;;;;;6.73;5.70;;;13.00;99.90;;;;;;5056311;28;20592;-84
2024/03/17 09:00:47;;;;;;;7.07;5.07;;;13.10;99.90;;;;;;5057823;28;20173;-85
2024/03/17 09:03:13;;;;;;;6.50;4.70;;;13.20;99.90;;;;;;5057633;28;20182;-85
2024/03/17 09:05:40;;;;;;;7.13;4.40;;;13.50;99.90;;;;;;5057430;28;20194;-85
2024/03/17 09:08:08;;;;;;;6.13;4.93;;;13.80;99.90;;;;;;5057198;28;20659;-86
2024/03/17 09:10:42;;;;;;;5.50;5.00;;;13.90;99.90;;;;;;5058024;28;20182;-85
2024/03/17 09:13:18;;;;;;;5.37;4.50;;;14.00;99.90;;;;;;5041150;28;20189;-85
2024/03/17 09:15:52;;;;;;;5.17;4.70;;;13.90;99.90;;;;;;5067795;28;20203;-85
2024/03/17 09:18:18;;;;;;;8.67;6.20;;;13.80;99.90;;;;;;5037351;28;20226;-85
2024/03/17 09:20:45;;;;;;;8.17;5.57;;;13.60;99.90;;;;;;5039390;28;20251;-85
2024/03/17 09:23:11;;;;;;;8.07;6.10;;;13.60;99.90;;;;;;5036805;28;20186;-86
2024/03/17 09:25:37;;;;;;;6.57;5.87;;;13.60;99.90;;;;;;5036387;28;20191;-88
2024/03/17 09:28:02;;;;;;;8.00;5.03;;;13.50;99.90;;;;;;5055552;28;20171;-86
2024/03/17 09:30:28;;;;;;;7.37;6.50;;;13.50;99.90;;;;;;5056837;28;20711;-86
2024/03/17 09:32:54;;;;;;;6.13;4.90;;;13.50;99.90;;;;;;5041068;28;20271;-86
2024/03/17 09:35:20;;;;;;;6.17;4.67;;;13.60;99.90;;;;;;5037016;28;20608;-86
2024/03/17 09:37:46;;;;;;;5.20;4.80;;;13.70;99.90;;;;;;5044421;28;20206;-85
2024/03/17 09:40:14;;;;;;;5.30;4.87;;;13.90;99.90;;;;;;5046233;28;20206;-86
2024/03/17 09:42:42;;;;;;;5.03;4.53;;;14.30;99.90;;;;;;5036207;28;20183;-86
2024/03/17 09:45:12;;;;;;;5.73;4.40;;;14.50;99.90;;;;;;5049326;28;20263;-85
2024/03/17 09:47:39;;;;;;;5.43;4.80;;;14.80;99.90;;;;;;5070011;28;20261;-86
2024/03/17 09:50:12;;;;;;;6.87;5.00;;;14.70;99.90;;;;;;5054412;28;20187;-86
2024/03/17 09:52:39;;;;;;;5.27;4.87;;;14.70;99.90;;;;;;5054838;28;20187;-86
2024/03/17 09:55:09;;;;;;;5.10;4.63;;;14.70;99.90;;;;;;5035899;28;20234;-85
2024/03/17 09:57:37;;;;;;;7.07;4.83;;;14.60;99.90;;;;;;5046273;28;20218;-86
2024/03/17 10:00:14;;;;;;;6.63;5.03;;;14.60;99.90;;;;;;5056387;28;20233;-86
2024/03/17 10:02:46;;;;;;;5.33;4.90;;;14.60;99.90;;;;;;5047645;28;20175;-85
2024/03/17 10:05:20;;;;;;;5.97;5.23;;;14.60;99.90;;;;;;5036367;28;20217;-87
2024/03/17 10:07:46;;;;;;;5.43;4.73;;;14.70;99.90;;;;;;5068847;28;20178;-84
2024/03/17 10:10:16;;;;;;;6.07;4.63;;;14.80;99.90;;;;;;5076436;28;20174;-85
2024/03/17 10:12:42;;;;;;;6.40;4.90;;;14.80;99.90;;;;;;5076504;28;20261;-86
2024/03/17 10:15:12;;;;;;;5.93;5.40;;;14.70;99.90;;;;;;5065886;28;20241;-84
2024/03/17 10:17:39;;;;;;;6.73;5.17;;;14.70;99.90;;;;;;5052480;28;20298;-85
2024/03/17 10:20:20;;;;;;;5.70;5.10;;;14.50;99.90;;;;;;5056113;28;20210;-85
2024/03/17 10:23:06;;;;;;;6.40;5.40;;;14.60;99.90;;;;;;5036738;28;20262;-86
2024/03/17 10:25:38;;;;;;;6.00;5.43;;;14.70;99.90;;;;;;5030927;28;20209;-85
2024/03/17 10:28:13;;;;;;;6.73;5.10;;;14.80;99.90;;;;;;5054577;28;20187;-84
2024/03/17 10:30:40;;;;;;;5.67;5.10;;;15.00;99.90;;;;;;5043204;28;20253;-85
2024/03/17 10:33:10;;;;;;;6.97;4.50;;;15.10;99.90;;;;;;5061571;28;20550;-84
2024/03/17 10:35:42;;;;;;;8.03;5.43;;;15.20;99.90;;;;;;5047306;28;20257;-85
2024/03/17 10:38:12;;;;;;;5.77;5.10;;;15.50;99.90;;;;;;5035816;28;20708;-85
2024/03/17 10:40:41;;;;;;;4.60;4.20;;;15.70;99.90;;;;;;5042735;28;20175;-86
2024/03/17 10:43:07;;;;;;;5.80;5.07;;;16.00;99.90;;;;;;5056829;28;20178;-85
2024/03/17 10:45:38;;;;;;;6.70;5.10;;;16.30;99.90;;;;;;5044544;28;20207;-86
2024/03/17 10:48:08;;;;;;;5.53;4.50;;;16.60;99.90;;;;;;5035272;28;20544;-85
2024/03/17 10:50:37;;;;;;;5.43;3.90;;;16.80;99.90;;;;;;5019234;28;20202;-85
2024/03/17 10:53:08;;;;;;;5.80;4.20;;;17.20;99.90;;;;;;5023212;28;20661;-86
2024/03/17 10:55:45;;;;;;;4.40;3.97;;;17.50;99.90;;;;;;5036291;28;20234;-86
2024/03/17 10:58:36;;;;;;;5.65;4.78;;;17.90;99.90;;;;;;5050254;28;20206;-86
2024/03/17 11:01:04;;;;;;;5.20;4.17;;;18.40;99.90;;;;;;5030247;28;20198;-87
2024/03/17 11:03:34;;;;;;;4.07;3.67;;;18.60;99.90;;;;;;5034847;28;20179;-86
2024/03/17 11:06:05;;;;;;;7.53;4.80;;;18.70;99.90;;;;;;5022684;28;20206;-86
2024/03/17 11:08:33;;;;;;;5.25;4.28;;;18.80;99.90;;;;;;5051147;28;20183;-85
2024/03/17 11:10:59;;;;;;;7.40;4.20;;;18.80;99.90;;;;;;5054618;28;20185;-88
2024/03/17 11:13:27;;;;;;;7.67;4.57;;;18.80;98.80;;;;;;5054394;28;20178;-85
2024/03/17 11:15:55;;;;;;;4.63;4.23;;;18.50;99.00;;;;;;5034901;28;20207;-86
2024/03/17 11:18:21;;;;;;;4.90;4.50;;;18.40;99.90;;;;;;5045048;28;20561;-86
2024/03/17 11:21:08;;;;;;;7.73;5.77;;;18.40;99.90;;;;;;5034670;28;20175;-86
2024/03/17 11:23:37;;;;;;;5.10;4.47;;;18.60;99.90;;;;;;5051173;28;20273;-86
2024/03/17 11:26:03;;;;;;;6.25;5.13;;;18.90;99.90;;;;;;5052286;28;20198;-85
2024/03/17 11:28:41;;;;;;;5.47;4.03;;;19.10;99.30;;;;;;5033402;28;20183;-86
2024/03/17 11:31:32;;;;;;;5.80;4.33;;;19.10;97.70;;;;;;5041920;28;20570;-84
2024/03/17 11:34:02;;;;;;;5.47;4.23;;;19.10;98.40;;;;;;5052743;28;20179;-86
2024/03/17 11:36:28;;;;;;;5.80;4.60;;;18.70;96.50;;;;;;5053629;28;20186;-86
2024/03/17 11:39:19;;;;;;;5.90;5.33;;;18.20;96.40;;;;;;5054105;28;20339;-86
2024/03/17 11:41:47;;;;;;;5.60;4.70;;;17.80;98.50;;;;;;5057167;28;20280;-86
2024/03/17 11:44:29;;;;;;;5.60;5.10;;;17.50;99.00;;;;;;5054339;28;20179;-86
2024/03/17 11:47:08;;;;;;;5.63;4.60;;;17.40;99.90;;;;;;5052723;28;20205;-86
2024/03/17 11:49:39;;;;;;;6.03;4.43;;;17.30;99.90;;;;;;5056147;28;20198;-85
2024/03/17 11:52:08;;;;;;;4.77;4.30;;;17.50;99.90;;;;;;5039139;28;20175;-86
2024/03/17 11:54:38;;;;;;;6.73;5.00;;;17.70;99.90;;;;;;5039906;28;20228;-86
2024/03/17 11:57:06;;;;;;;7.53;5.20;;;17.70;99.90;;;;;;5056695;23;20930;-72
2024/03/17 11:59:33;;;;;;;5.80;5.10;;;17.80;99.90;;;;;;5065409;28;20201;-72
2024/03/17 12:01:59;;;;;;;6.53;4.40;;;18.00;99.90;;;;;;5049376;28;20178;-72
2024/03/17 12:04:25;;;;;;;7.80;4.70;;;18.10;99.60;;;;;;5050204;28;20171;-70
2024/03/17 12:06:52;;;;;;;7.03;4.83;;;18.10;99.50;;;;;;5050441;28;20178;-70
2024/03/17 12:09:21;;;;;;;7.20;5.57;;;18.20;99.70;;;;;;5050381;28;20269;-70
2024/03/17 12:11:51;;;;;;;6.80;5.30;;;18.40;99.60;;;;;;5051255;28;20171;-70
2024/03/17 12:14:20;;;;;;;6.60;5.20;;;18.50;98.20;;;;;;5050402;28;20236;-71
2024/03/17 12:16:56;;;;;;;4.80;4.27;;;18.60;98.20;;;;;;5050525;28;20174;-70
2024/03/17 12:19:22;;;;;;;5.07;4.40;;;18.60;97.50;;;;;;5052392;28;20194;-72
2024/03/17 12:21:53;;;;;;;5.33;4.47;;;18.50;96.90;;;;;;5051584;28;20170;-71
2024/03/17 12:24:24;;;;;;;5.40;4.90;;;18.20;95.90;;;;;;5051469;28;20253;-72
2024/03/17 12:26:55;;;;;;;7.87;5.03;;;18.10;98.30;;;;;;5049798;28;20639;-72
2024/03/17 12:29:29;;;;;;;6.70;5.60;;;18.20;98.60;;;;;;5050412;28;20194;-72
2024/03/17 12:31:57;;;;;;;5.87;5.27;;;18.20;98.40;;;;;;5050931;28;20177;-71
2024/03/17 12:34:26;;;;;;;6.23;5.63;;;18.20;98.70;;;;;;5052696;28;20179;-71
2024/03/17 12:36:52;;;;;;;7.47;5.90;;;18.10;98.60;;;;;;5052329;28;20244;-71
2024/03/17 12:39:39;;;;;;;5.53;4.80;;;18.00;96.80;;;;;;5051943;28;20203;-71
2024/03/17 12:42:09;;;;;;;7.57;5.00;;;17.80;98.30;;;;;;5053499;28;20221;-71
2024/03/17 12:44:54;;;;;;;6.87;5.27;;;17.70;99.10;;;;;;5053507;28;20225;-71
2024/03/17 12:47:22;;;;;;;6.80;5.10;;;17.70;99.90;;;;;;5053462;28;20539;-71